Time;durP1;ratioP1;P1;durP2;ratioP2;P2;SDS_P1;SDS_P2;PMS_P1;PMS_P2;Temp;Humidity;BMP_temperature;BMP_pressure;BME280_temperature;BME280_humidity;BME280_pressure;Samples;Min_cycle;Max_cycle;Signal;HPM_P1;HPM_P2
2024/04/21 00:01:53;;;;;;;;;;;;;;;22.98;46.31;94425.91;5383186;26;9336;-61
2024/04/21 00:04:35;;;;;;;;;;;;;;;23.00;46.89;94430.91;5395464;26;8675;-62
2024/04/21 00:07:09;;;;;;;;;;;;;;;23.03;46.00;94419.69;5418665;26;9494;-62
2024/04/21 00:09:45;;;;;;;;;;;;;;;23.00;46.37;94420.69;5388651;26;9337;-62
2024/04/21 00:12:56;;;;;;;;;;;;;;;23.00;46.67;94417.94;5419679;26;9032;-62
2024/04/21 00:15:43;;;;;;;;;;;;;;;23.00;45.85;94414.44;5326450;26;9427;-62
2024/04/21 00:18:16;;;;;;;;;;;;;;;23.02;46.20;94414.69;5332970;26;9773;-62
2024/04/21 00:21:21;;;;;;;;;;;;;;;23.02;46.16;94420.19;5340257;26;9378;-62
2024/04/21 00:23:56;;;;;;;;;;;;;;;23.00;46.01;94414.44;5311784;26;7301;-62
2024/04/21 00:26:42;;;;;;;;;;;;;;;23.00;46.38;94414.44;5340946;26;9064;-62
2024/04/21 00:29:22;;;;;;;;;;;;;;;23.02;46.30;94411.94;5298494;26;9629;-63
2024/04/21 00:32:06;;;;;;;;;;;;;;;23.02;46.11;94400.97;5349479;26;9491;-62
2024/04/21 00:35:06;;;;;;;;;;;;;;;23.01;46.54;94400.22;5340035;26;9410;-62
2024/04/21 00:37:37;;;;;;;;;;;;;;;23.01;46.17;94399.50;5310996;26;9457;-62
2024/04/21 00:40:50;;;;;;;;;;;;;;;23.00;46.01;94396.00;5305496;26;10673;-62
2024/04/21 00:43:32;;;;;;;;;;;;;;;23.03;46.19;94386.75;5185990;27;7070;-62
2024/04/21 00:46:11;;;;;;;;;;;;;;;22.97;46.23;94383.25;5204641;27;9112;-62
2024/04/21 00:48:40;;;;;;;;;;;;;;;23.02;46.22;94390.00;5204813;27;9390;-62
2024/04/21 00:51:07;;;;;;;;;;;;;;;22.98;46.08;94373.78;5199684;27;9047;-62
2024/04/21 00:53:36;;;;;;;;;;;;;;;22.96;46.09;94372.78;5269056;27;9033;-62
2024/04/21 00:56:05;;;;;;;;;;;;;;;23.00;45.75;94378.78;5298035;26;9520;-62
2024/04/21 00:58:44;;;;;;;;;;;;;;;23.00;46.14;94374.03;5310381;26;9495;-63
2024/04/21 01:01:11;;;;;;;;;;;;;;;23.02;46.20;94376.28;5260950;27;9055;-63
2024/04/21 01:03:47;;;;;;;;;;;;;;;23.02;45.87;94379.78;5282112;26;9035;-62
2024/04/21 01:06:32;;;;;;;;;;;;;;;23.00;46.07;94365.06;5311300;26;9194;-62
2024/04/21 01:09:12;;;;;;;;;;;;;;;23.01;46.07;94361.81;5320322;26;9598;-63
2024/04/21 01:11:48;;;;;;;;;;;;;;;22.99;46.34;94364.31;5306012;27;8708;-62
2024/04/21 01:14:14;;;;;;;;;;;;;;;23.01;46.04;94363.84;5276902;27;9053;-62
2024/04/21 01:17:10;;;;;;;;;;;;;;;23.02;45.73;94352.34;5305283;26;9493;-62
2024/04/21 01:19:49;;;;;;;;;;;;;;;22.98;46.31;94342.88;5324345;26;7461;-62
2024/04/21 01:22:50;;;;;;;;;;;;;;;23.01;46.19;94350.13;5365466;26;7652;-62
2024/04/21 01:25:33;;;;;;;;;;;;;;;23.02;45.76;94351.59;5295137;27;7569;-62
2024/04/21 01:28:00;;;;;;;;;;;;;;;23.02;45.67;94340.63;5264760;27;9925;-63
2024/04/21 01:30:39;;;;;;;;;;;;;;;22.99;45.55;94342.38;5305384;27;9176;-62
2024/04/21 01:33:07;;;;;;;;;;;;;;;22.98;46.04;94340.13;5288264;26;9092;-62
2024/04/21 01:35:37;;;;;;;;;;;;;;;23.00;46.28;94349.34;5322421;26;7231;-61
2024/04/21 01:38:04;;;;;;;;;;;;;;;22.99;46.32;94336.88;5297200;27;9008;-61
2024/04/21 01:40:30;;;;;;;;;;;;;;;22.97;46.04;94333.13;5303936;26;8977;-61
2024/04/21 01:43:11;;;;;;;;;;;;;;;23.02;45.86;94333.16;5320534;26;9684;-61
2024/04/21 01:45:46;;;;;;;;;;;;;;;23.01;45.78;94328.91;5305137;26;9036;-61
2024/04/21 01:48:12;;;;;;;;;;;;;;;23.01;45.62;94326.16;5286856;26;7309;-61
2024/04/21 01:50:38;;;;;;;;;;;;;;;23.02;45.66;94315.94;5274302;26;9018;-61
2024/04/21 01:53:13;;;;;;;;;;;;;;;22.97;45.74;94320.16;5304286;26;9186;-61
2024/04/21 01:55:48;;;;;;;;;;;;;;;23.00;45.97;94312.94;5287527;26;8247;-61
2024/04/21 01:58:32;;;;;;;;;;;;;;;23.03;45.91;94315.44;5274676;27;9032;-61
2024/04/21 02:01:14;;;;;;;;;;;;;;;23.00;46.03;94316.44;5303559;26;9598;-61
2024/04/21 02:03:42;;;;;;;;;;;;;;;23.00;45.50;94310.19;5439774;26;9233;-61
2024/04/21 02:06:35;;;;;;;;;;;;;;;23.02;45.51;94302.97;5416428;26;9484;-61
2024/04/21 02:09:12;;;;;;;;;;;;;;;23.01;45.60;94300.75;5416608;26;9318;-61
2024/04/21 02:12:13;;;;;;;;;;;;;;;23.00;45.92;94299.22;5406044;26;9826;-61
2024/04/21 02:14:57;;;;;;;;;;;;;;;22.99;45.51;94293.00;5276197;27;9791;-61
2024/04/21 02:17:24;;;;;;;;;;;;;;;22.98;45.33;94291.50;5254468;27;9184;-61
2024/04/21 02:19:51;;;;;;;;;;;;;;;22.99;45.55;94287.50;5259526;27;9089;-61
2024/04/21 02:22:54;;;;;;;;;;;;;;;22.99;45.63;94284.75;5237529;27;9776;-61
2024/04/21 02:25:22;;;;;;;;;;;;;;;22.99;45.93;94278.53;5245641;27;9339;-61
2024/04/21 02:28:01;;;;;;;;;;;;;;;22.97;45.57;94275.53;5225024;27;9353;-61
2024/04/21 02:30:45;;;;;;;;;;;;;;;22.99;45.88;94279.28;5275852;27;8975;-61
2024/04/21 02:33:31;;;;;;;;;;;;;;;22.98;45.69;94277.78;5241483;27;9440;-61
2024/04/21 02:36:06;;;;;;;;;;;;;;;22.96;45.69;94277.53;5258121;27;9952;-61
2024/04/21 02:38:48;;;;;;;;;;;;;;;23.00;45.77;94274.53;5290038;27;8947;-61
2024/04/21 02:41:17;;;;;;;;;;;;;;;22.99;45.66;94273.78;5259402;27;9102;-61
2024/04/21 02:43:44;;;;;;;;;;;;;;;23.00;45.45;94272.56;5247244;27;9118;-60
2024/04/21 02:46:21;;;;;;;;;;;;;;;23.00;45.68;94264.34;5280529;27;7424;-61
2024/04/21 02:48:52;;;;;;;;;;;;;;;22.97;45.49;94276.28;5241755;27;9131;-61
2024/04/21 02:51:18;;;;;;;;;;;;;;;22.98;45.63;94257.84;5398877;26;7132;-61
2024/04/21 02:54:14;;;;;;;;;;;;;;;22.98;45.85;94258.59;5411907;26;9412;-61
2024/04/21 02:56:40;;;;;;;;;;;;;;;23.00;45.86;94250.63;5415820;26;9515;-61
2024/04/21 02:59:26;;;;;;;;;;;;;;;23.03;45.67;94248.88;5416279;26;9131;-61
2024/04/21 03:01:57;;;;;;;;;;;;;;;22.97;45.77;94243.38;5380265;26;8076;-61
2024/04/21 03:04:37;;;;;;;;;;;;;;;22.98;45.43;94238.63;5415841;26;9858;-61
2024/04/21 03:07:29;;;;;;;;;;;;;;;22.98;45.66;94241.38;5387420;26;9416;-61
2024/04/21 03:09:59;;;;;;;;;;;;;;;22.96;45.81;94238.38;5380731;26;9430;-61
2024/04/21 03:12:25;;;;;;;;;;;;;;;22.95;45.51;94240.38;5407439;26;9483;-61
2024/04/21 03:15:09;;;;;;;;;;;;;;;22.97;45.49;94224.16;5415550;26;8980;-59
2024/04/21 03:17:38;;;;;;;;;;;;;;;22.96;45.63;94230.91;5457320;26;9494;-60
2024/04/21 03:20:13;;;;;;;;;;;;;;;22.99;46.00;94226.41;5397817;26;9178;-59
2024/04/21 03:22:51;;;;;;;;;;;;;;;22.99;45.83;94227.16;5364848;26;9158;-59
2024/04/21 03:25:20;;;;;;;;;;;;;;;22.96;45.77;94217.22;5406892;26;9038;-60
2024/04/21 03:28:00;;;;;;;;;;;;;;;23.01;45.45;94212.97;5349065;26;9096;-60
2024/04/21 03:30:27;;;;;;;;;;;;;;;23.00;45.83;94216.94;5413622;26;7194;-60
2024/04/21 03:33:12;;;;;;;;;;;;;;;22.97;45.54;94213.19;5443162;26;9045;-60
2024/04/21 03:36:36;;;;;;;;;;;;;;;23.01;45.83;94207.50;5383409;26;7034;-60
2024/04/21 03:39:02;;;;;;;;;;;;;;;22.97;45.56;94212.44;5262440;27;9498;-60
2024/04/21 03:41:29;;;;;;;;;;;;;;;22.97;45.38;94213.19;5229015;27;7302;-60
2024/04/21 03:44:40;;;;;;;;;;;;;;;22.99;45.60;94213.44;5272444;27;8815;-60
2024/04/21 03:47:06;;;;;;;;;;;;;;;22.98;45.58;94208.47;5224597;27;8512;-60
2024/04/21 03:49:33;;;;;;;;;;;;;;;22.97;45.71;94199.50;5240908;27;7393;-60
2024/04/21 03:51:59;;;;;;;;;;;;;;;22.97;45.57;94190.50;5208717;27;9171;-59
2024/04/21 03:54:41;;;;;;;;;;;;;;;23.00;45.34;94198.50;5173020;27;8653;-61
2024/04/21 03:57:08;;;;;;;;;;;;;;;22.97;45.68;94180.28;5248232;27;9134;-61
2024/04/21 03:59:45;;;;;;;;;;;;;;;23.00;45.34;94186.78;5237921;27;7306;-61
2024/04/21 04:02:12;;;;;;;;;;;;;;;22.96;45.30;94194.50;5253256;27;9547;-61
2024/04/21 04:05:19;;;;;;;;;;;;;;;22.97;45.75;94190.50;5197817;27;9540;-67
2024/04/21 04:07:52;;;;;;;;;;;;;;;22.97;45.56;94187.75;5236565;27;8799;-67
2024/04/21 04:10:51;;;;;;;;;;;;;;;22.96;45.14;94183.53;5294006;27;9447;-67
2024/04/21 04:13:27;;;;;;;;;;;;;;;22.92;45.74;94183.78;5329043;26;7016;-67
2024/04/21 04:16:09;;;;;;;;;;;;;;;22.95;45.32;94182.03;5276829;26;9484;-68
2024/04/21 04:18:44;;;;;;;;;;;;;;;22.87;45.67;94173.56;5253026;27;9374;-68
2024/04/21 04:21:31;;;;;;;;;;;;;;;22.88;45.76;94166.81;5299807;27;7468;-67
2024/04/21 04:24:01;;;;;;;;;;;;;;;22.97;45.56;94188.53;5333690;26;7230;-67
2024/04/21 04:26:27;;;;;;;;;;;;;;;22.89;45.30;94162.84;5431311;26;7191;-67
2024/04/21 04:29:04;;;;;;;;;;;;;;;22.92;45.85;94180.31;5448163;26;7364;-67
2024/04/21 04:31:43;;;;;;;;;;;;;;;22.91;45.85;94179.53;5432154;26;7033;-67
2024/04/21 04:34:09;;;;;;;;;;;;;;;22.84;45.78;94160.09;5442261;26;7104;-67
2024/04/21 04:36:41;;;;;;;;;;;;;;;22.98;45.26;94168.09;5425647;26;7057;-67
2024/04/21 04:39:11;;;;;;;;;;;;;;;22.97;45.21;94161.09;5448590;26;7386;-65
2024/04/21 04:41:42;;;;;;;;;;;;;;;23.02;45.52;94165.84;5383210;26;7128;-69
2024/04/21 04:44:08;;;;;;;;;;;;;;;23.02;45.65;94154.13;5434565;26;6959;-69
2024/04/21 04:46:39;;;;;;;;;;;;;;;23.13;45.44;94162.34;5412955;26;7374;-69
2024/04/21 04:49:05;;;;;;;;;;;;;;;23.08;45.98;94161.09;5412941;26;7461;-67
2024/04/21 04:51:31;;;;;;;;;;;;;;;23.11;46.27;94157.38;5381933;26;6982;-69
2024/04/21 04:53:59;;;;;;;;;;;;;;;23.10;47.59;94153.09;5377693;26;7334;-69
2024/04/21 04:56:29;;;;;;;;;;;;;;;23.24;47.73;94167.81;5398389;26;7076;-72
2024/04/21 04:58:57;;;;;;;;;;;;;;;23.30;47.08;94165.81;5412211;26;8465;-71
2024/04/21 05:01:25;;;;;;;;;;;;;;;23.32;49.64;94159.81;5411637;26;7109;-64
2024/04/21 05:04:20;;;;;;;;;;;;;;;23.35;48.38;94167.09;5426976;26;7732;-62
2024/04/21 05:06:51;;;;;;;;;;;;;;;23.27;46.89;94153.84;5308704;26;7317;-63
2024/04/21 05:09:32;;;;;;;;;;;;;;;23.23;46.85;94147.84;5318057;26;8090;-61
2024/04/21 05:12:00;;;;;;;;;;;;;;;23.19;47.01;94158.34;5302267;26;7088;-64
2024/04/21 05:14:37;;;;;;;;;;;;;;;23.27;48.18;94166.84;5344808;26;7390;-62
2024/04/21 05:17:17;;;;;;;;;;;;;;;23.25;48.17;94156.34;5315891;26;7309;-61
2024/04/21 05:20:10;;;;;;;;;;;;;;;23.38;49.35;94155.13;5324232;26;7697;-61
2024/04/21 05:22:41;;;;;;;;;;;;;;;23.53;55.90;94167.28;5293698;26;9590;-62
2024/04/21 05:25:10;;;;;;;;;;;;;;;23.84;56.65;94169.72;5356103;26;8985;-61
2024/04/21 05:27:53;;;;;;;;;;;;;;;24.09;57.22;94156.16;5290020;27;9675;-61
2024/04/21 05:30:28;;;;;;;;;;;;;;;24.38;56.63;94164.50;5320474;26;8986;-61
2024/04/21 05:33:10;;;;;;;;;;;;;;;24.56;55.03;94169.41;5282363;27;9499;-61
2024/04/21 05:35:54;;;;;;;;;;;;;;;24.55;49.21;94139.69;5333483;26;9644;-63
2024/04/21 05:38:20;;;;;;;;;;;;;;;24.21;46.70;94147.38;5334256;26;9097;-64
2024/04/21 05:41:04;;;;;;;;;;;;;;;23.92;46.99;94145.97;5287825;26;9622;-64
2024/04/21 05:43:31;;;;;;;;;;;;;;;23.74;46.83;94140.28;5394537;26;9041;-61
2024/04/21 05:46:06;;;;;;;;;;;;;;;23.57;45.87;94131.38;5382013;26;9098;-61
2024/04/21 05:48:32;;;;;;;;;;;;;;;23.47;46.12;94138.38;5378254;26;7426;-63
2024/04/21 05:50:58;;;;;;;;;;;;;;;23.38;45.30;94147.59;5353969;26;8006;-63
2024/04/21 05:53:51;;;;;;;;;;;;;;;23.23;45.08;94147.09;5422502;26;7857;-63
2024/04/21 05:56:33;;;;;;;;;;;;;;;23.15;45.58;94144.13;5280028;27;7110;-60
2024/04/21 05:59:08;;;;;;;;;;;;;;;23.12;45.91;94141.63;5298383;26;8810;-59
2024/04/21 06:01:46;;;;;;;;;;;;;;;23.09;45.65;94142.66;5276993;26;7840;-59
2024/04/21 06:04:30;;;;;;;;;;;;;;;22.98;45.90;94135.19;5309305;26;7731;-59
2024/04/21 06:07:18;;;;;;;;;;;;;;;23.01;46.28;94147.16;5331775;26;9425;-59
2024/04/21 06:10:18;;;;;;;;;;;;;;;22.98;46.70;94143.41;5302327;26;7544;-59
2024/04/21 06:12:58;;;;;;;;;;;;;;;23.00;46.52;94140.16;5287149;26;9837;-59
2024/04/21 06:15:54;;;;;;;;;;;;;;;22.99;46.98;94139.41;5297949;26;8259;-59
2024/04/21 06:18:43;;;;;;;;;;;;;;;22.95;46.74;94127.19;5129669;27;9488;-59
2024/04/21 06:21:11;;;;;;;;;;;;;;;22.98;47.17;94131.69;5109213;27;9061;-59
2024/04/21 06:24:08;;;;;;;;;;;;;;;23.00;46.85;94140.91;5132574;27;7549;-58
2024/04/21 06:27:09;;;;;;;;;;;;;;;23.03;46.95;94128.91;5049946;28;8134;-59
2024/04/21 06:30:32;;;;;;;;;;;;;;;23.04;47.28;94135.91;5045380;28;8025;-59
2024/04/21 06:33:41;;;;;;;;;;;;;;;23.07;46.92;94123.94;5016725;28;8758;-59
2024/04/21 06:36:19;;;;;;;;;;;;;;;23.07;47.27;94121.22;5080962;28;7221;-59
2024/04/21 06:38:55;;;;;;;;;;;;;;;23.07;46.88;94115.72;5042126;27;8764;-59
2024/04/21 06:41:56;;;;;;;;;;;;;;;23.10;47.19;94113.94;5070299;28;7638;-59
2024/04/21 06:44:24;;;;;;;;;;;;;;;23.11;47.52;94112.72;5070078;28;8880;-59
2024/04/21 06:47:03;;;;;;;;;;;;;;;23.13;47.25;94116.47;5072882;27;8430;-59
2024/04/21 06:49:36;;;;;;;;;;;;;;;23.11;47.22;94116.22;5074838;27;8558;-59
2024/04/21 06:52:06;;;;;;;;;;;;;;;23.13;46.97;94113.72;5160076;27;9678;-59
2024/04/21 06:54:32;;;;;;;;;;;;;;;23.16;46.97;94111.97;5097141;27;7264;-59
2024/04/21 06:57:10;;;;;;;;;;;;;;;23.13;45.18;94101.97;5218553;27;9200;-59
2024/04/21 07:00:15;;;;;;;;;;;;;;;23.00;46.46;94105.25;5207830;27;9045;-60
2024/04/21 07:02:51;;;;;;;;;;;;;;;22.98;46.08;94107.75;5170857;27;8646;-58
2024/04/21 07:05:21;;;;;;;;;;;;;;;22.99;46.66;94101.00;5223977;27;9367;-58
2024/04/21 07:07:48;;;;;;;;;;;;;;;23.01;46.66;94101.25;5244975;27;9037;-58
2024/04/21 07:10:40;;;;;;;;;;;;;;;23.01;46.84;94097.78;5316354;26;10131;-58
2024/04/21 07:13:20;;;;;;;;;;;;;;;22.98;47.04;94102.25;5324256;26;8749;-58
2024/04/21 07:15:56;;;;;;;;;;;;;;;23.01;46.56;94104.00;5340065;26;8188;-58
2024/04/21 07:18:31;;;;;;;;;;;;;;;23.08;47.22;94105.47;5291869;26;9004;-58
2024/04/21 07:21:13;;;;;;;;;;;;;;;23.08;46.38;94098.00;5320826;26;9118;-58
2024/04/21 07:23:53;;;;;;;;;;;;;;;23.07;46.67;94106.75;5307675;26;9469;-60
2024/04/21 07:26:20;;;;;;;;;;;;;;;23.05;46.68;94088.03;5303455;26;7240;-61
2024/04/21 07:28:56;;;;;;;;;;;;;;;23.01;47.10;94087.53;5337598;26;8985;-61
2024/04/21 07:31:23;;;;;;;;;;;;;;;23.00;47.10;94094.28;5304018;26;7236;-61
2024/04/21 07:33:56;;;;;;;;;;;;;;;23.07;46.66;94091.03;5353473;26;9086;-61
2024/04/21 07:36:32;;;;;;;;;;;;;;;23.08;46.79;94091.75;5433868;26;9411;-63
2024/04/21 07:39:04;;;;;;;;;;;;;;;23.02;46.85;94089.03;5427334;26;9493;-61
2024/04/21 07:41:31;;;;;;;;;;;;;;;23.03;47.43;94087.78;5382673;26;9795;-61
2024/04/21 07:44:35;;;;;;;;;;;;;;;23.04;46.95;94096.75;5378878;26;9101;-61
2024/04/21 07:47:28;;;;;;;;;;;;;;;23.01;47.43;94095.75;5236967;27;8616;-61
2024/04/21 07:49:54;;;;;;;;;;;;;;;23.04;47.41;94086.53;5298512;27;7182;-61
2024/04/21 07:52:21;;;;;;;;;;;;;;;23.06;47.40;94088.78;5279245;27;7128;-62
2024/04/21 07:54:47;;;;;;;;;;;;;;;23.03;46.99;94082.28;5290398;27;9042;-62
2024/04/21 07:57:29;;;;;;;;;;;;;;;23.07;47.25;94082.06;5246585;27;9059;-62
2024/04/21 08:00:24;;;;;;;;;;;;;;;23.01;47.34;94075.84;5283776;27;7300;-62
2024/04/21 08:02:54;;;;;;;;;;;;;;;23.04;47.44;94081.06;5203874;27;7133;-61
2024/04/21 08:05:20;;;;;;;;;;;;;;;23.06;47.35;94077.81;5182400;27;8974;-61
2024/04/21 08:07:47;;;;;;;;;;;;;;;23.08;47.63;94073.31;5206556;27;8997;-61
2024/04/21 08:10:15;;;;;;;;;;;;;;;23.11;47.57;94071.56;5185815;27;7020;-61
2024/04/21 08:12:43;;;;;;;;;;;;;;;23.10;47.57;94073.56;5232121;27;8196;-61
2024/04/21 08:15:11;;;;;;;;;;;;;;;23.16;47.27;94068.06;5173610;27;8702;-61
2024/04/21 08:18:25;;;;;;;;;;;;;;;23.15;47.14;94061.84;5177458;27;9177;-61
2024/04/21 08:20:53;;;;;;;;;;;;;;;23.17;47.68;94064.06;5255838;27;9091;-60
2024/04/21 08:23:52;;;;;;;;;;;;;;;23.20;47.08;94069.31;5306345;26;8594;-60
2024/04/21 08:26:18;;;;;;;;;;;;;;;23.19;47.36;94065.06;5236575;27;9103;-61
2024/04/21 08:28:58;;;;;;;;;;;;;;;23.22;47.56;94058.59;5237927;27;9459;-61
2024/04/21 08:31:44;;;;;;;;;;;;;;;23.22;47.22;94055.84;5205466;27;8260;-61
2024/04/21 08:34:13;;;;;;;;;;;;;;;23.25;47.43;94060.31;5237221;27;9363;-62
2024/04/21 08:37:09;;;;;;;;;;;;;;;23.23;47.18;94053.81;5237901;27;9059;-62
2024/04/21 08:39:49;;;;;;;;;;;;;;;23.25;47.35;94046.59;5236269;27;9695;-62
2024/04/21 08:42:18;;;;;;;;;;;;;;;23.25;47.53;94057.56;5218531;27;9168;-62
2024/04/21 08:44:49;;;;;;;;;;;;;;;23.29;47.26;94051.06;5238047;27;8639;-62
2024/04/21 08:47:32;;;;;;;;;;;;;;;23.29;47.46;94045.59;5235041;27;9360;-62
2024/04/21 08:50:01;;;;;;;;;;;;;;;23.28;47.32;94047.56;5217391;27;8996;-62
2024/04/21 08:52:33;;;;;;;;;;;;;;;23.27;47.28;94044.09;5237850;27;9059;-62
2024/04/21 08:54:59;;;;;;;;;;;;;;;23.29;47.17;94045.59;5213150;27;9549;-62
2024/04/21 08:57:45;;;;;;;;;;;;;;;23.31;47.22;94043.09;5229570;27;8901;-62
2024/04/21 09:00:19;;;;;;;;;;;;;;;23.27;47.17;94038.59;5212241;27;9392;-62
2024/04/21 09:02:45;;;;;;;;;;;;;;;23.25;47.33;94046.59;5242594;27;9113;-60
2024/04/21 09:05:17;;;;;;;;;;;;;;;23.28;47.32;94050.31;5315306;26;7032;-60
2024/04/21 09:08:09;;;;;;;;;;;;;;;23.29;47.52;94045.59;5310900;26;9322;-59
2024/04/21 09:10:47;;;;;;;;;;;;;;;23.20;47.29;94039.13;5307656;26;9049;-59
2024/04/21 09:13:14;;;;;;;;;;;;;;;23.19;47.32;94026.66;5302391;26;9375;-60
2024/04/21 09:16:13;;;;;;;;;;;;;;;23.21;47.10;94026.91;5330170;26;7274;-60
2024/04/21 09:18:39;;;;;;;;;;;;;;;23.23;47.59;94027.13;5309831;26;9203;-60
2024/04/21 09:21:08;;;;;;;;;;;;;;;23.25;47.60;94038.34;5336468;26;10037;-60
2024/04/21 09:23:35;;;;;;;;;;;;;;;23.21;47.62;94035.13;5338500;26;9527;-60
2024/04/21 09:26:11;;;;;;;;;;;;;;;23.18;47.34;94019.66;5310465;26;9139;-60
2024/04/21 09:28:42;;;;;;;;;;;;;;;23.19;47.72;94026.66;5340125;26;9101;-60
2024/04/21 09:31:18;;;;;;;;;;;;;;;23.20;47.71;94022.66;5361376;26;9069;-59
2024/04/21 09:33:49;;;;;;;;;;;;;;;23.22;47.78;94017.44;5336990;26;9040;-59
2024/04/21 09:36:51;;;;;;;;;;;;;;;23.21;47.82;94002.19;5367109;26;9049;-60
2024/04/21 09:39:30;;;;;;;;;;;;;;;23.14;47.53;94002.00;5211371;27;9094;-59
2024/04/21 09:42:09;;;;;;;;;;;;;;;23.20;47.66;94066.56;5235943;27;10079;-60
2024/04/21 09:45:23;;;;;;;;;;;;;;;23.22;47.64;94066.81;5268634;27;9420;-63
2024/04/21 09:48:00;;;;;;;;;;;;;;;23.22;47.87;94080.53;5265239;27;7207;-64
2024/04/21 09:50:27;;;;;;;;;;;;;;;23.21;47.83;94084.50;5209492;27;8359;-63
2024/04/21 09:52:54;;;;;;;;;;;;;;;23.23;47.96;94097.72;5208953;27;9288;-64
2024/04/21 09:55:24;;;;;;;;;;;;;;;23.22;48.05;94104.47;5292126;27;7214;-64
2024/04/21 09:58:12;;;;;;;;;;;;;;;23.22;47.79;94109.97;5298026;27;9915;-63
2024/04/21 10:00:44;;;;;;;;;;;;;;;23.21;47.86;94120.19;5241065;27;9458;-63
2024/04/21 10:03:19;;;;;;;;;;;;;;;23.18;47.39;94107.44;5290406;27;9577;-64
2024/04/21 10:05:53;;;;;;;;;;;;;;;23.19;47.56;94122.69;5296982;27;8610;-63
2024/04/21 10:08:52;;;;;;;;;;;;;;;23.20;47.80;94131.66;5293368;26;8644;-63
2024/04/21 10:12:08;;;;;;;;;;;;;;;23.19;47.50;94139.13;5171015;27;8748;-63
2024/04/21 10:14:54;;;;;;;;;;;;;;;23.17;48.16;94143.63;5169928;27;8960;-64
2024/04/21 10:17:22;;;;;;;;;;;;;;;23.19;48.43;94139.13;5191275;27;9373;-63
2024/04/21 10:20:05;;;;;;;;;;;;;;;23.22;48.08;94142.88;5207942;27;9558;-63
2024/04/21 10:22:33;;;;;;;;;;;;;;;23.21;47.79;94152.34;5225326;27;7254;-63
2024/04/21 10:25:17;;;;;;;;;;;;;;;23.25;47.82;94153.59;5202697;27;7095;-63
2024/04/21 10:28:09;;;;;;;;;;;;;;;23.22;48.20;94159.34;5202968;27;8990;-63
2024/04/21 10:31:03;;;;;;;;;;;;;;;23.17;48.11;94160.09;5193070;27;9079;-63
2024/04/21 10:37:52;;;;;;;;;;;;;;;23.07;48.01;94173.31;5228749;27;8921;-63
2024/04/21 10:40:21;;;;;;;;;;;;;;;23.07;47.86;94165.09;5209097;27;7151;-64
2024/04/21 10:42:53;;;;;;;;;;;;;;;23.10;47.86;94166.81;5209852;27;9178;-62
2024/04/21 10:45:23;;;;;;;;;;;;;;;23.09;48.05;94173.56;5178373;27;8989;-62
2024/04/21 10:48:03;;;;;;;;;;;;;;;23.13;47.98;94176.06;5263017;26;9045;-63
2024/04/21 10:50:34;;;;;;;;;;;;;;;23.11;48.29;94167.56;5347206;26;9430;-63
2024/04/21 10:53:03;;;;;;;;;;;;;;;23.14;48.40;94183.06;5418655;26;10063;-63
2024/04/21 10:55:32;;;;;;;;;;;;;;;23.06;48.19;94169.06;5383816;26;7184;-61
2024/04/21 10:58:00;;;;;;;;;;;;;;;23.05;48.71;94169.59;5377423;26;9395;-60
2024/04/21 11:00:49;;;;;;;;;;;;;;;23.05;48.58;94170.31;5374248;26;9484;-61
2024/04/21 11:03:23;;;;;;;;;;;;;;;23.04;48.59;94174.31;5408198;26;8976;-61
2024/04/21 11:06:09;;;;;;;;;;;;;;;23.04;48.94;94179.03;5383637;26;7024;-61
2024/04/21 11:08:36;;;;;;;;;;;;;;;23.00;48.81;94173.06;5382933;26;9037;-61
2024/04/21 11:11:32;;;;;;;;;;;;;;;23.01;48.34;94169.09;5358209;26;9055;-61
2024/04/21 11:14:00;;;;;;;;;;;;;;;23.01;48.93;94172.56;5296069;27;9449;-60
2024/04/21 11:16:30;;;;;;;;;;;;;;;23.00;49.01;94179.31;5279028;27;9505;-61
2024/04/21 11:18:58;;;;;;;;;;;;;;;23.02;49.06;94174.06;5300681;26;8160;-61
2024/04/21 11:21:25;;;;;;;;;;;;;;;23.02;48.82;94179.56;5342922;26;9081;-61
2024/04/21 11:23:52;;;;;;;;;;;;;;;23.07;49.05;94184.31;5279037;27;7645;-60
2024/04/21 11:26:28;;;;;;;;;;;;;;;23.04;48.64;94170.81;5281425;27;8994;-61
2024/04/21 11:28:57;;;;;;;;;;;;;;;23.05;48.64;94173.06;5319996;26;7297;-61
2024/04/21 11:31:24;;;;;;;;;;;;;;;23.09;48.60;94178.31;5325665;26;7682;-61
2024/04/21 11:33:59;;;;;;;;;;;;;;;23.12;48.66;94171.81;5300952;26;8749;-61
2024/04/21 11:36:27;;;;;;;;;;;;;;;23.11;47.95;94162.84;5302687;26;7145;-61
2024/04/21 11:38:53;;;;;;;;;;;;;;;23.10;48.06;94172.31;5301337;26;9031;-61
2024/04/21 11:41:21;;;;;;;;;;;;;;;23.08;48.26;94169.31;5324450;26;8613;-61
2024/04/21 11:43:54;;;;;;;;;;;;;;;23.11;48.50;94171.06;5321848;26;9477;-61
2024/04/21 11:46:34;;;;;;;;;;;;;;;23.12;48.81;94169.81;5280039;26;9565;-61
2024/04/21 11:49:01;;;;;;;;;;;;;;;23.11;48.24;94173.81;5335779;26;7235;-61
2024/04/21 11:51:27;;;;;;;;;;;;;;;23.07;48.51;94165.09;5387094;26;9070;-61
2024/04/21 11:53:55;;;;;;;;;;;;;;;23.06;48.51;94171.81;5382936;26;9507;-62
2024/04/21 11:56:25;;;;;;;;;;;;;;;23.07;46.66;94169.84;5416317;26;9044;-61
2024/04/21 11:59:27;;;;;;;;;;;;;;;23.00;47.95;94168.34;5380537;26;9296;-60
2024/04/21 12:02:40;;;;;;;;;;;;;;;23.02;48.05;94176.06;5194100;27;9276;-59
2024/04/21 12:05:30;;;;;;;;;;;;;;;23.02;48.41;94187.03;5194314;27;7285;-60
2024/04/21 12:07:59;;;;;;;;;;;;;;;23.01;48.20;94185.53;5260362;27;8972;-59
2024/04/21 12:10:33;;;;;;;;;;;;;;;23.00;48.68;94187.53;5268627;27;9518;-59
2024/04/21 12:13:13;;;;;;;;;;;;;;;23.00;48.75;94190.28;5234474;27;8977;-60
2024/04/21 12:15:40;;;;;;;;;;;;;;;23.01;48.62;94193.78;5323766;26;8548;-59
2024/04/21 12:18:20;;;;;;;;;;;;;;;23.08;49.04;94188.53;5254730;27;7278;-59
2024/04/21 12:20:56;;;;;;;;;;;;;;;23.11;48.58;94189.53;5292000;27;9490;-60
2024/04/21 12:23:27;;;;;;;;;;;;;;;23.12;48.95;94189.03;5271098;27;8656;-60
2024/04/21 12:26:03;;;;;;;;;;;;;;;23.12;48.50;94183.53;5297711;26;9445;-60
2024/04/21 12:28:42;;;;;;;;;;;;;;;23.10;48.37;94185.28;5250865;27;7151;-60
2024/04/21 12:31:19;;;;;;;;;;;;;;;23.09;48.71;94181.81;5326610;26;9848;-61
2024/04/21 12:34:13;;;;;;;;;;;;;;;23.10;49.02;94182.53;5241148;27;9045;-61
2024/04/21 12:36:47;;;;;;;;;;;;;;;23.01;48.82;94172.56;5345975;26;8990;-61
2024/04/21 12:39:20;;;;;;;;;;;;;;;23.07;48.85;94170.59;5411786;26;7689;-61
2024/04/21 12:45:35;;;;;;;;;;;;;;;23.11;48.62;94179.31;5282844;27;9438;-61
2024/04/21 12:48:04;;;;;;;;;;;;;;;23.11;48.74;94178.56;5341617;26;9471;-61
2024/04/21 12:50:30;;;;;;;;;;;;;;;23.09;49.05;94176.31;5275708;27;9138;-61
2024/04/21 12:52:56;;;;;;;;;;;;;;;23.09;48.85;94173.56;5298648;26;9564;-61
2024/04/21 12:55:25;;;;;;;;;;;;;;;23.09;48.91;94176.31;5276332;27;9352;-62
2024/04/21 12:57:51;;;;;;;;;;;;;;;23.11;48.93;94173.81;5277404;27;9053;-62
2024/04/21 13:00:17;;;;;;;;;;;;;;;23.11;47.85;94173.06;5332504;26;7609;-62
2024/04/21 13:03:03;;;;;;;;;;;;;;;23.11;47.86;94170.31;5276674;27;8249;-61
2024/04/21 13:05:30;;;;;;;;;;;;;;;23.07;48.16;94176.06;5247621;27;8904;-62
2024/04/21 13:07:57;;;;;;;;;;;;;;;23.06;48.06;94171.81;5302366;27;9523;-62
2024/04/21 13:10:36;;;;;;;;;;;;;;;23.06;48.08;94180.03;5299284;26;6946;-62
2024/04/21 13:13:10;;;;;;;;;;;;;;;23.05;48.09;94183.28;5258218;27;9066;-61
2024/04/21 13:15:37;;;;;;;;;;;;;;;23.06;48.02;94179.28;5285589;27;9124;-60
2024/04/21 13:18:07;;;;;;;;;;;;;;;23.08;48.11;94179.53;5303743;27;7199;-60
2024/04/21 13:21:03;;;;;;;;;;;;;;;23.09;48.31;94187.28;5358823;26;8633;-61
2024/04/21 13:23:29;;;;;;;;;;;;;;;23.10;48.40;94188.00;5365934;26;7276;-61
2024/04/21 13:26:13;;;;;;;;;;;;;;;23.09;48.82;94181.81;5394528;26;9322;-61
2024/04/21 13:28:39;;;;;;;;;;;;;;;23.11;48.36;94178.56;5403157;26;7246;-60
2024/04/21 13:31:19;;;;;;;;;;;;;;;23.11;48.53;94176.56;5397706;26;7427;-61
2024/04/21 13:33:45;;;;;;;;;;;;;;;23.11;48.54;94179.31;5384389;26;7132;-61
2024/04/21 13:36:15;;;;;;;;;;;;;;;23.08;48.64;94172.06;5387069;26;9008;-61
2024/04/21 13:38:51;;;;;;;;;;;;;;;23.12;48.58;94180.03;5424377;26;9357;-61
2024/04/21 13:41:20;;;;;;;;;;;;;;;23.09;49.15;94176.31;5367256;26;9115;-60
2024/04/21 13:43:47;;;;;;;;;;;;;;;23.10;48.49;94175.06;5417491;26;7251;-61
2024/04/21 13:46:49;;;;;;;;;;;;;;;23.09;49.15;94172.81;5404830;26;10006;-61
2024/04/21 13:49:15;;;;;;;;;;;;;;;23.05;49.10;94170.31;5425886;26;9109;-61
2024/04/21 13:51:44;;;;;;;;;;;;;;;23.10;48.74;94172.31;5384050;26;7256;-62
2024/04/21 13:54:10;;;;;;;;;;;;;;;23.09;48.74;94179.06;5381217;26;9160;-61
2024/04/21 13:56:40;;;;;;;;;;;;;;;23.09;49.06;94168.09;5379455;26;8598;-62
2024/04/21 13:59:07;;;;;;;;;;;;;;;23.15;48.83;94177.06;5448183;26;8630;-62